createdAt,value
2023-03-21T00:04:48.464Z,49.79
2023-03-21T00:09:59.129Z,49.89
2023-03-21T00:15:16.242Z,49.69
2023-03-21T00:20:23.621Z,49.98
2023-03-21T00:25:30.077Z,49.91
2023-03-21T00:30:31.732Z,49.86
2023-03-21T00:35:57.952Z,49.74
2023-03-21T00:41:04.729Z,49.87
2023-03-21T00:46:13.746Z,49.96
2023-03-21T00:51:27.170Z,50.02
2023-03-21T00:56:31.567Z,50.13
2023-03-21T01:01:33.206Z,49.88
2023-03-21T01:06:40.193Z,50.15
2023-03-21T01:11:42.278Z,49.85
2023-03-21T01:16:46.219Z,50.16
2023-03-21T01:21:50.316Z,50.14
2023-03-21T01:26:54.454Z,50.09
2023-03-21T01:31:56.159Z,50.09
2023-03-21T01:37:00.810Z,50.17
2023-03-21T01:42:07.338Z,50.09
2023-03-21T01:47:12.495Z,50.19
2023-03-21T01:52:37.992Z,50.32
2023-03-21T01:58:02.468Z,50.51
2023-03-21T02:03:17.020Z,50.47
2023-03-21T02:08:39.190Z,50.29
2023-03-21T02:13:45.798Z,50.52
2023-03-21T02:18:55.470Z,50.54
2023-03-21T02:24:21.497Z,50.41
2023-03-21T02:29:23.271Z,50.60
2023-03-21T02:35:00.751Z,50.63
2023-03-21T02:40:14.332Z,50.30
2023-03-21T02:45:20.435Z,50.46
2023-03-21T02:50:43.702Z,50.29
2023-03-21T02:55:47.408Z,50.49
2023-03-21T03:00:55.185Z,50.11
2023-03-21T03:06:45.055Z,50.50
2023-03-21T03:11:57.565Z,50.41
2023-03-21T03:17:05.385Z,50.37
2023-03-21T03:22:16.264Z,50.57
2023-03-21T03:27:20.073Z,50.68
2023-03-21T03:32:31.351Z,50.98
2023-03-21T03:37:37.386Z,50.57
2023-03-21T03:42:52.493Z,50.69
2023-03-21T03:48:22.248Z,50.36
2023-03-21T03:53:36.466Z,50.63
2023-03-21T03:58:45.589Z,50.79
2023-03-21T04:04:01.033Z,50.62
2023-03-21T04:09:20.679Z,50.38
2023-03-21T04:14:42.051Z,50.72
2023-03-21T04:19:53.814Z,50.51
2023-03-21T04:25:01.469Z,50.71
2023-03-21T04:30:06.009Z,50.48
2023-03-21T04:35:28.504Z,50.20
2023-03-21T04:40:32.914Z,50.36
2023-03-21T04:45:38.497Z,50.74
2023-03-21T04:50:42.607Z,50.56
2023-03-21T04:55:45.131Z,50.56
2023-03-21T05:00:49.459Z,50.65
2023-03-21T05:05:51.115Z,50.71
2023-03-21T05:10:56.762Z,50.38
2023-03-21T05:16:01.287Z,50.62
2023-03-21T05:21:11.013Z,50.57
2023-03-21T05:26:14.691Z,50.51
2023-03-21T05:31:30.152Z,50.85
2023-03-21T05:36:41.050Z,50.77
2023-03-21T05:41:45.247Z,51.10
2023-03-21T05:46:52.777Z,51.00
2023-03-21T05:51:58.883Z,50.51
2023-03-21T05:57:05.674Z,50.84
2023-03-21T06:02:24.235Z,51.10
2023-03-21T06:07:29.508Z,50.57
2023-03-21T06:12:31.386Z,50.80
2023-03-21T06:17:56.078Z,50.62
2023-03-21T06:23:06.051Z,50.95
2023-03-21T06:28:10.596Z,50.70
2023-03-21T06:33:19.836Z,50.60
2023-03-21T06:38:24.468Z,50.33
2023-03-21T06:43:26.310Z,50.77
2023-03-21T06:48:30.474Z,50.82
2023-03-21T06:53:35.070Z,50.86
2023-03-21T06:59:00.724Z,51.22
2023-03-21T07:04:24.349Z,50.90
2023-03-21T07:09:28.696Z,50.81
2023-03-21T07:14:38.895Z,50.59
2023-03-21T07:19:44.831Z,50.35
2023-03-21T07:25:02.436Z,50.34
2023-03-21T07:30:11.337Z,49.93
2023-03-21T07:35:16.088Z,49.83
2023-03-21T07:40:20.245Z,49.67
2023-03-21T07:45:26.952Z,49.45
2023-03-21T07:50:28.455Z,48.91
2023-03-21T07:55:29.998Z,48.33
2023-03-21T08:00:31.775Z,47.89
2023-03-21T08:05:39.524Z,47.92
2023-03-21T08:10:45.294Z,47.58
2023-03-21T08:15:46.930Z,47.13
2023-03-21T08:20:55.998Z,47.21
2023-03-21T08:25:59.839Z,46.66
2023-03-21T08:31:11.320Z,46.47
2023-03-21T08:36:13.040Z,46.40
2023-03-21T08:41:19.518Z,46.54
2023-03-21T08:46:21.059Z,46.00
2023-03-21T08:51:22.697Z,46.06
2023-03-21T08:56:26.481Z,46.03
2023-03-21T09:01:29.508Z,45.56
2023-03-21T09:06:33.425Z,45.66
2023-03-21T09:11:37.649Z,45.33
2023-03-21T09:16:39.180Z,45.11
2023-03-21T09:21:44.066Z,44.98
2023-03-21T09:26:45.801Z,43.88
2023-03-21T09:31:53.530Z,43.76
2023-03-21T09:36:57.977Z,44.25
2023-03-21T09:42:24.799Z,43.89
2023-03-21T09:47:34.723Z,44.03
2023-03-21T09:53:05.844Z,43.79
2023-03-21T09:58:29.077Z,43.60
2023-03-21T10:03:36.869Z,42.84
2023-03-21T10:08:41.916Z,43.14
2023-03-21T10:14:07.769Z,43.05
2023-03-21T10:19:14.801Z,42.21
2023-03-21T10:24:26.214Z,42.16
2023-03-21T10:29:32.851Z,42.00
2023-03-21T10:34:50.696Z,40.73
2023-03-21T10:39:54.947Z,40.98
2023-03-21T10:44:57.743Z,41.33
2023-03-21T10:50:11.857Z,40.76
2023-03-21T10:55:32.079Z,41.05
2023-03-21T11:00:53.609Z,40.82
2023-03-21T11:05:59.767Z,40.62
2023-03-21T11:11:12.469Z,40.91
2023-03-21T11:16:27.299Z,40.73
2023-03-21T11:21:36.189Z,40.87
2023-03-21T11:26:44.387Z,40.64
2023-03-21T11:31:48.372Z,40.54
2023-03-21T11:36:51.009Z,40.55
2023-03-21T11:41:52.807Z,40.65
2023-03-21T11:46:54.940Z,40.89
2023-03-21T11:52:05.921Z,40.80
2023-03-21T11:57:31.576Z,40.54
2023-03-21T12:02:55.755Z,40.69
2023-03-21T12:08:30.891Z,40.79
2023-03-21T12:13:54.587Z,40.42
2023-03-21T12:19:10.650Z,40.40
2023-03-21T12:24:42.365Z,40.16
2023-03-21T12:30:07.167Z,40.32
2023-03-21T12:35:22.787Z,40.14
2023-03-21T12:41:09.482Z,40.08
2023-03-21T12:46:28.173Z,39.34
2023-03-21T12:51:34.759Z,39.28
2023-03-21T12:56:52.882Z,39.39
2023-03-21T13:01:59.651Z,39.10
2023-03-21T13:07:06.689Z,39.35
2023-03-21T13:12:34.581Z,39.54
2023-03-21T13:17:48.583Z,39.21
2023-03-21T13:22:50.225Z,39.47
2023-03-21T13:27:54.153Z,39.49
2023-03-21T13:33:12.989Z,39.38
2023-03-21T13:38:19.652Z,39.18
2023-03-21T13:44:05.843Z,38.38
2023-03-21T13:49:10.655Z,38.52
2023-03-21T13:54:17.335Z,38.50
2023-03-21T13:59:37.362Z,38.44
2023-03-21T14:05:00.325Z,38.41
2023-03-21T14:10:22.216Z,38.56
2023-03-21T14:15:30.437Z,38.61
2023-03-21T14:20:42.266Z,38.20
2023-03-21T14:25:47.729Z,38.12
2023-03-21T14:30:55.685Z,38.16
2023-03-21T14:36:05.144Z,38.15
2023-03-21T14:41:22.104Z,38.31
2023-03-21T14:46:27.239Z,38.07
2023-03-21T14:51:29.132Z,37.60
2023-03-21T14:56:30.724Z,37.83
2023-03-21T15:01:36.200Z,37.72
2023-03-21T15:06:51.901Z,37.52
2023-03-21T15:11:55.960Z,37.41
2023-03-21T15:17:00.791Z,37.25
2023-03-21T15:22:09.693Z,37.38
2023-03-21T15:27:18.968Z,37.25
2023-03-21T15:32:29.153Z,37.20
2023-03-21T15:37:36.866Z,37.28
2023-03-21T15:42:47.704Z,37.20
2023-03-21T15:47:49.231Z,37.41
2023-03-21T15:52:52.216Z,36.77
2023-03-21T15:58:02.609Z,37.11
2023-03-21T16:03:16.991Z,37.01
2023-03-21T16:08:27.277Z,37.11
2023-03-21T16:13:29.224Z,37.08
2023-03-21T16:18:33.216Z,37.06
2023-03-21T16:23:39.350Z,37.15
2023-03-21T16:28:40.909Z,37.07
2023-03-21T16:33:43.590Z,37.03
2023-03-21T16:38:55.088Z,37.05
2023-03-21T16:43:56.665Z,37.02
2023-03-21T16:48:58.485Z,37.00
2023-03-21T16:54:00.666Z,37.13
2023-03-21T16:59:05.953Z,36.98
2023-03-21T17:04:12.438Z,37.38
2023-03-21T17:09:19.088Z,37.33
2023-03-21T17:14:22.729Z,37.33
2023-03-21T17:19:26.285Z,37.38
2023-03-21T17:24:28.341Z,37.40
2023-03-21T17:29:30.342Z,37.46
2023-03-21T17:34:34.200Z,37.58
2023-03-21T17:39:38.864Z,37.57
2023-03-21T17:44:42.835Z,37.87
2023-03-21T17:49:44.574Z,37.88
2023-03-21T17:54:53.871Z,37.82
2023-03-21T17:59:56.813Z,38.12
2023-03-21T18:05:00.802Z,38.41
2023-03-21T18:10:03.726Z,38.32
2023-03-21T18:15:16.852Z,38.36
2023-03-21T18:20:22.559Z,38.41
2023-03-21T18:25:29.117Z,38.58
2023-03-21T18:30:53.043Z,38.67
2023-03-21T18:35:58.641Z,38.79
2023-03-21T18:41:01.135Z,38.80
2023-03-21T18:46:07.261Z,39.17
2023-03-21T18:51:10.035Z,39.42
2023-03-21T18:56:46.646Z,39.72
2023-03-21T19:01:35.364Z,40.30
2023-03-21T19:06:38.743Z,40.66
2023-03-21T19:11:44.117Z,40.38
2023-03-21T19:17:34.238Z,40.71
2023-03-21T19:22:12.820Z,40.59
2023-03-21T19:27:14.783Z,40.78
2023-03-21T19:32:20.265Z,40.85
2023-03-21T19:37:22.121Z,40.85
2023-03-21T19:42:28.391Z,40.83
2023-03-21T19:47:33.801Z,40.79
2023-03-21T19:52:37.490Z,40.92
2023-03-21T19:57:39.080Z,41.54
2023-03-21T20:02:40.979Z,41.69
2023-03-21T20:07:42.576Z,41.92
2023-03-21T20:12:48.335Z,41.73
2023-03-21T20:17:50.416Z,42.00
2023-03-21T20:23:06.825Z,42.33
2023-03-21T20:28:16.238Z,42.42
2023-03-21T20:33:21.890Z,42.54
2023-03-21T20:38:26.184Z,42.40
2023-03-21T20:48:53.493Z,42.41
2023-03-21T20:53:55.329Z,42.38
2023-03-21T20:59:17.434Z,42.64
2023-03-21T21:05:08.043Z,42.89
2023-03-21T21:09:59.036Z,42.75
2023-03-21T21:15:00.900Z,42.83
2023-03-21T21:20:20.761Z,42.93
2023-03-21T21:25:24.017Z,42.85
2023-03-21T21:30:38.179Z,42.93
2023-03-21T21:35:47.370Z,43.32
2023-03-21T21:40:51.991Z,43.06
2023-03-21T21:45:54.210Z,43.07
2023-03-21T21:50:59.033Z,43.22
2023-03-21T21:56:03.411Z,43.44
2023-03-21T22:01:07.770Z,43.58
2023-03-21T22:06:12.353Z,43.85
2023-03-21T22:11:14.925Z,43.81
2023-03-21T22:16:21.159Z,43.84
2023-03-21T22:21:22.791Z,43.96
2023-03-21T22:26:24.418Z,43.92
2023-03-21T22:31:26.426Z,44.02
2023-03-21T22:36:29.973Z,44.36
2023-03-21T22:41:33.943Z,44.43
2023-03-21T22:46:38.722Z,44.13
2023-03-21T22:51:41.915Z,44.23
2023-03-21T22:56:43.730Z,44.68
2023-03-21T23:01:45.359Z,44.61
2023-03-21T23:06:47.181Z,45.00
2023-03-21T23:11:51.561Z,44.85
2023-03-21T23:16:53.696Z,45.21
2023-03-21T23:21:55.847Z,45.26
2023-03-21T23:26:57.508Z,45.50
2023-03-21T23:32:01.263Z,45.57
2023-03-21T23:37:06.838Z,45.69
2023-03-21T23:42:13.228Z,45.56
2023-03-21T23:47:16.047Z,45.59
2023-03-21T23:52:17.651Z,45.47
2023-03-21T23:57:25.264Z,45.66
